createdAt,value
2022-12-08T00:02:03.743Z,96496.59
2022-12-08T00:04:52.329Z,96490.41
2022-12-08T00:07:39.818Z,96483.97
2022-12-08T00:10:46.593Z,96488.22
2022-12-08T00:12:58.715Z,96475.63
2022-12-08T00:15:27.192Z,96472.66
2022-12-08T00:17:55.515Z,96474.75
2022-12-08T00:20:24.102Z,96476.66
2022-12-08T00:22:53.771Z,96465.69
2022-12-08T00:25:22.424Z,96467.03
2022-12-08T00:27:51.051Z,96461.91
2022-12-08T00:30:19.623Z,96459.22
2022-12-08T00:32:48.244Z,96449.53
2022-12-08T00:35:16.810Z,96453.00
2022-12-08T00:37:45.154Z,96451.38
2022-12-08T00:40:15.141Z,96460.19
2022-12-08T00:42:43.530Z,96459.94
2022-12-08T00:45:13.237Z,96457.00
2022-12-08T00:47:41.661Z,96459.16
2022-12-08T00:50:10.874Z,96463.97
2022-12-08T00:52:39.628Z,96461.53
2022-12-08T00:55:08.891Z,96456.38
2022-12-08T00:57:38.589Z,96461.47
2022-12-08T01:00:09.100Z,96454.19
2022-12-08T01:02:37.429Z,96455.81
2022-12-08T01:05:06.545Z,96460.63
2022-12-08T01:07:35.007Z,96460.88
2022-12-08T01:10:05.071Z,96466.47
2022-12-08T01:12:33.914Z,96457.09
2022-12-08T01:15:03.603Z,96469.47
2022-12-08T01:17:32.244Z,96456.06
2022-12-08T01:20:02.155Z,96460.38
2022-12-08T01:22:31.028Z,96462.47
2022-12-08T01:24:59.779Z,96462.16
2022-12-08T01:27:28.065Z,96466.91
2022-12-08T01:29:56.454Z,96464.28
2022-12-08T01:32:26.120Z,96472.28
2022-12-08T01:34:54.769Z,96467.16
2022-12-08T01:37:23.110Z,96463.38
2022-12-08T01:39:51.428Z,96467.06
2022-12-08T01:42:24.752Z,96464.41
2022-12-08T01:45:02.709Z,96466.63
2022-12-08T01:47:40.948Z,96456.84
2022-12-08T01:50:14.588Z,96453.53
2022-12-08T01:52:50.338Z,96454.78
2022-12-08T01:55:27.267Z,96457.66
2022-12-08T01:58:01.882Z,96462.47
2022-12-08T02:00:30.732Z,96455.84
2022-12-08T02:03:04.295Z,96445.56
2022-12-08T02:05:40.837Z,96441.94
2022-12-08T02:08:12.397Z,96447.16
2022-12-08T02:10:43.540Z,96437.56
2022-12-08T02:13:17.984Z,96440.25
2022-12-08T02:16:03.554Z,96441.59
2022-12-08T02:19:08.260Z,96441.59
2022-12-08T02:21:50.893Z,96432.50
2022-12-08T02:24:33.801Z,96428.97
2022-12-08T02:27:33.834Z,96430.31
2022-12-08T02:30:18.677Z,96426.28
2022-12-08T02:33:35.591Z,96423.34
2022-12-08T02:36:17.426Z,96420.66
2022-12-08T02:39:01.959Z,96418.50
2022-12-08T02:41:42.780Z,96417.69
2022-12-08T02:44:21.186Z,96410.97
2022-12-08T02:46:59.265Z,96408.53
2022-12-08T02:49:31.746Z,96407.19
2022-12-08T02:52:29.195Z,96404.75
2022-12-08T02:55:02.921Z,96400.47
2022-12-08T02:57:46.559Z,96405.03
2022-12-08T03:00:19.697Z,96402.63
2022-12-08T03:03:09.605Z,96401.84
2022-12-08T03:06:06.699Z,96399.44
2022-12-08T03:08:47.763Z,96391.66
2022-12-08T03:11:24.130Z,96390.34
2022-12-08T03:13:55.822Z,96388.47
2022-12-08T03:16:29.406Z,96389.50
2022-12-08T03:19:10.057Z,96391.66
2022-12-08T03:21:41.055Z,96385.50
2022-12-08T03:24:12.326Z,96380.41
2022-12-08T03:26:48.172Z,96377.69
2022-12-08T03:29:17.373Z,96376.84
2022-12-08T03:31:55.742Z,96378.66
2022-12-08T03:34:28.897Z,96370.06
2022-12-08T03:36:57.692Z,96378.88
2022-12-08T03:39:27.450Z,96373.47
2022-12-08T03:41:56.200Z,96377.16
2022-12-08T03:44:25.006Z,96374.72
2022-12-08T03:46:53.774Z,96365.63
2022-12-08T03:49:22.200Z,96367.44
2022-12-08T03:51:51.294Z,96367.16
2022-12-08T03:54:19.862Z,96368.72
2022-12-08T03:56:49.722Z,96364.41
2022-12-08T03:59:18.165Z,96365.44
2022-12-08T04:01:46.801Z,96354.13
2022-12-08T04:04:15.574Z,96359.69
2022-12-08T04:06:44.390Z,96355.16
2022-12-08T04:09:13.028Z,96358.59
2022-12-08T04:11:41.633Z,96362.31
2022-12-08T04:14:11.859Z,96351.34
2022-12-08T04:16:40.602Z,96355.97
2022-12-08T04:19:09.837Z,96353.28
2022-12-08T04:21:38.592Z,96351.41
2022-12-08T04:24:08.115Z,96347.06
2022-12-08T04:26:36.536Z,96347.53
2022-12-08T04:29:05.352Z,96341.69
2022-12-08T04:31:35.551Z,96341.66
2022-12-08T04:34:04.401Z,96335.19
2022-12-08T04:36:33.238Z,96339.44
2022-12-08T04:39:02.264Z,96341.28
2022-12-08T04:41:31.042Z,96329.16
2022-12-08T04:43:59.558Z,96331.19
2022-12-08T04:46:28.321Z,96329.84
2022-12-08T04:48:58.237Z,96330.06
2022-12-08T04:51:27.370Z,96332.19
2022-12-08T04:53:56.235Z,96332.53
2022-12-08T04:56:24.978Z,96335.53
2022-12-08T04:58:53.745Z,96336.00
2022-12-08T05:01:22.258Z,96339.66
2022-12-08T05:03:50.958Z,96341.41
2022-12-08T05:06:20.762Z,96337.66
2022-12-08T05:08:49.666Z,96341.88
2022-12-08T05:11:18.432Z,96336.81
2022-12-08T05:13:47.393Z,96336.31
2022-12-08T05:16:17.487Z,96343.09
2022-12-08T05:18:46.100Z,96340.22
2022-12-08T05:21:15.747Z,96334.16
2022-12-08T05:23:45.643Z,96337.19
2022-12-08T05:26:14.226Z,96334.28
2022-12-08T05:28:43.919Z,96333.00
2022-12-08T05:31:13.479Z,96327.13
2022-12-08T05:33:42.834Z,96339.72
2022-12-08T05:36:14.081Z,96330.94
2022-12-08T05:38:42.957Z,96335.25
2022-12-08T05:41:16.930Z,96332.34
2022-12-08T05:43:45.951Z,96329.44
2022-12-08T05:46:16.152Z,96334.56
2022-12-08T05:48:45.012Z,96324.97
2022-12-08T05:51:21.252Z,96323.63
2022-12-08T05:53:51.414Z,96326.09
2022-12-08T05:56:24.441Z,96320.78
2022-12-08T05:58:53.064Z,96329.34
2022-12-08T06:01:24.464Z,96321.31
2022-12-08T06:03:53.370Z,96321.59
2022-12-08T06:06:24.509Z,96329.44
2022-12-08T06:08:53.349Z,96324.34
2022-12-08T06:11:28.475Z,96313.63
2022-12-08T06:13:57.913Z,96323.31
2022-12-08T06:16:28.142Z,96323.31
2022-12-08T06:18:57.889Z,96321.97
2022-12-08T06:21:26.562Z,96326.28
2022-12-08T06:23:57.160Z,96328.16
2022-12-08T06:26:27.868Z,96331.38
2022-12-08T06:28:56.967Z,96322.00
2022-12-08T06:31:27.336Z,96326.84
2022-12-08T06:33:56.618Z,96317.44
2022-12-08T06:36:27.841Z,96316.63
2022-12-08T06:38:56.788Z,96324.69
2022-12-08T06:41:28.097Z,96321.16
2022-12-08T06:43:58.215Z,96327.63
2022-12-08T06:46:26.681Z,96325.19
2022-12-08T06:48:55.098Z,96324.94
2022-12-08T06:51:23.897Z,96337.25
2022-12-08T06:53:52.536Z,96335.41
2022-12-08T06:56:23.914Z,96334.84
2022-12-08T06:58:53.597Z,96335.94
2022-12-08T07:01:22.334Z,96342.13
2022-12-08T07:03:50.714Z,96332.22
2022-12-08T07:06:22.846Z,96336.22
2022-12-08T07:08:51.478Z,96334.31
2022-12-08T07:11:22.201Z,96328.16
2022-12-08T07:13:52.805Z,96336.75
2022-12-08T07:16:21.523Z,96326.28
2022-12-08T07:18:50.263Z,96320.13
2022-12-08T07:21:19.251Z,96321.75
2022-12-08T07:23:54.424Z,96322.00
2022-12-08T07:26:26.905Z,96318.22
2022-12-08T07:28:56.871Z,96319.28
2022-12-08T07:31:28.526Z,96313.38
2022-12-08T07:33:58.120Z,96317.69
2022-12-08T07:36:27.316Z,96326.53
2022-12-08T07:38:56.818Z,96320.13
2022-12-08T07:41:26.892Z,96321.69
2022-12-08T07:43:58.260Z,96332.47
2022-12-08T07:46:27.797Z,96328.16
2022-12-08T07:48:57.133Z,96340.25
2022-12-08T07:51:26.212Z,96339.94
2022-12-08T07:53:55.486Z,96341.03
2022-12-08T07:56:24.595Z,96336.19
2022-12-08T07:58:53.538Z,96340.44
2022-12-08T08:01:28.397Z,96345.78
2022-12-08T08:04:01.444Z,96348.22
2022-12-08T08:06:30.267Z,96352.00
2022-12-08T08:08:59.049Z,96344.78
2022-12-08T08:11:27.749Z,96353.59
2022-12-08T08:13:57.535Z,96352.19
2022-12-08T08:16:28.471Z,96350.31
2022-12-08T08:18:58.533Z,96348.81
2022-12-08T08:24:15.833Z,96349.88
2022-12-08T08:26:44.529Z,96349.09
2022-12-08T08:29:13.078Z,96346.44
2022-12-08T08:31:43.034Z,96340.22
2022-12-08T08:34:11.826Z,96348.22
2022-12-08T08:36:41.286Z,96353.28
2022-12-08T08:39:09.878Z,96351.97
2022-12-08T08:41:38.357Z,96352.03
2022-12-08T08:44:07.087Z,96340.78
2022-12-08T08:46:35.949Z,96343.47
2022-12-08T08:49:05.945Z,96348.88
2022-12-08T08:51:34.896Z,96342.94
2022-12-08T08:54:03.408Z,96344.88
2022-12-08T08:56:32.292Z,96351.56
2022-12-08T08:59:03.068Z,96354.53
2022-12-08T09:01:32.072Z,96346.47
2022-12-08T09:04:01.435Z,96344.53
2022-12-08T09:06:31.749Z,96344.84
2022-12-08T09:09:00.597Z,96345.41
2022-12-08T09:11:29.205Z,96347.53
2022-12-08T09:13:57.855Z,96348.38
2022-12-08T09:16:27.050Z,96343.50
2022-12-08T09:18:55.823Z,96333.06
2022-12-08T09:21:27.696Z,96337.63
2022-12-08T09:23:59.612Z,96338.44
2022-12-08T09:26:29.802Z,96342.19
2022-12-08T09:28:58.981Z,96338.41
2022-12-08T09:31:27.910Z,96333.25
2022-12-08T09:33:56.668Z,96339.75
2022-12-08T09:36:25.181Z,96333.59
2022-12-08T09:38:54.792Z,96339.75
2022-12-08T09:41:37.961Z,96332.75
2022-12-08T09:44:42.102Z,96330.09
2022-12-08T09:47:22.401Z,96323.38
2022-12-08T09:50:00.439Z,96329.56
2022-12-08T09:52:36.429Z,96326.84
2022-12-08T09:55:13.579Z,96320.66
2022-12-08T09:57:43.597Z,96328.19
2022-12-08T10:00:15.482Z,96316.63
2022-12-08T10:02:48.310Z,96315.00
2022-12-08T10:05:17.060Z,96309.38
2022-12-08T10:07:50.374Z,96310.75
2022-12-08T10:10:36.024Z,96304.88
2022-12-08T10:13:18.179Z,96296.84
2022-12-08T10:15:57.515Z,96289.03
2022-12-08T10:18:30.812Z,96294.38
2022-12-08T10:21:18.176Z,96287.41
2022-12-08T10:23:51.345Z,96291.44
2022-12-08T10:26:23.166Z,96280.16
2022-12-08T10:28:53.271Z,96275.06
2022-12-08T10:31:26.290Z,96276.66
2022-12-08T10:34:00.809Z,96272.09
2022-12-08T10:36:50.359Z,96270.69
2022-12-08T10:39:38.661Z,96264.25
2022-12-08T10:42:22.317Z,96259.66
2022-12-08T10:45:16.082Z,96256.16
2022-12-08T10:47:56.802Z,96253.53
2022-12-08T10:50:31.831Z,96249.47
2022-12-08T10:53:04.037Z,96250.72
2022-12-08T10:55:44.227Z,96244.97
2022-12-08T10:58:33.844Z,96247.50
2022-12-08T11:01:10.877Z,96242.31
2022-12-08T11:03:48.716Z,96235.69
2022-12-08T11:06:22.528Z,96238.78
2022-12-08T11:08:55.244Z,96233.66
2022-12-08T11:11:39.448Z,96233.50
2022-12-08T11:14:09.804Z,96227.25
2022-12-08T11:16:44.316Z,96218.16
2022-12-08T11:19:19.601Z,96218.53
2022-12-08T11:21:48.722Z,96210.13
2022-12-08T11:24:25.312Z,96215.19
2022-12-08T11:27:01.371Z,96205.66
2022-12-08T11:29:32.430Z,96202.19
2022-12-08T11:32:08.969Z,96202.19
2022-12-08T11:34:47.176Z,96200.94
2022-12-08T11:37:23.010Z,96196.88
2022-12-08T11:39:57.520Z,96199.38
2022-12-08T11:42:43.639Z,96198.16
2022-12-08T11:45:21.600Z,96197.47
2022-12-08T11:48:05.142Z,96196.47
2022-12-08T11:50:44.844Z,96204.91
2022-12-08T11:53:26.041Z,96201.09
2022-12-08T11:56:01.831Z,96183.78
2022-12-08T11:58:40.708Z,96188.09
2022-12-08T12:01:20.528Z,96178.31
2022-12-08T12:04:10.112Z,96184.41
2022-12-08T12:07:26.160Z,96182.09
2022-12-08T12:10:14.748Z,96165.88
2022-12-08T12:13:08.665Z,96169.03
2022-12-08T12:16:33.844Z,96161.59
2022-12-08T12:19:10.545Z,96168.25
2022-12-08T12:21:45.475Z,96162.59
2022-12-08T12:24:26.101Z,96165.94
2022-12-08T12:27:01.231Z,96152.63
2022-12-08T12:29:33.520Z,96154.13
2022-12-08T12:32:07.907Z,96152.84
2022-12-08T12:34:48.360Z,96143.84
2022-12-08T12:37:21.252Z,96136.13
2022-12-08T12:39:59.832Z,96141.56
2022-12-08T12:42:42.604Z,96152.38
2022-12-08T12:45:32.051Z,96135.31
2022-12-08T12:48:25.204Z,96138.06
2022-12-08T12:50:56.843Z,96136.13
2022-12-08T12:53:52.027Z,96141.59
2022-12-08T12:56:57.514Z,96146.59
2022-12-08T12:59:53.267Z,96141.91
2022-12-08T13:02:30.966Z,96138.97
2022-12-08T13:05:11.321Z,96146.84
2022-12-08T13:07:51.871Z,96151.56
2022-12-08T13:10:25.005Z,96151.63
2022-12-08T13:13:18.569Z,96150.75
2022-12-08T13:15:52.965Z,96161.31
2022-12-08T13:18:27.188Z,96146.47
2022-12-08T13:21:05.360Z,96144.50
2022-12-08T13:23:51.074Z,96141.38
2022-12-08T13:26:23.120Z,96146.75
2022-12-08T13:29:18.342Z,96140.28
2022-12-08T13:31:51.323Z,96138.56
2022-12-08T13:34:37.808Z,96138.19
2022-12-08T13:37:25.069Z,96138.97
2022-12-08T13:40:01.457Z,96135.91
2022-12-08T13:42:43.263Z,96145.13
2022-12-08T13:45:48.661Z,96143.56
2022-12-08T13:48:33.192Z,96130.28
2022-12-08T13:53:22.533Z,96132.19
2022-12-08T13:57:07.110Z,96128.94
2022-12-08T13:59:37.236Z,96123.84
2022-12-08T14:02:19.263Z,96126.59
2022-12-08T14:07:39.973Z,96129.28
2022-12-08T14:10:15.709Z,96112.16
2022-12-08T14:12:53.157Z,96124.56
2022-12-08T14:15:22.179Z,96125.91
2022-12-08T14:17:54.749Z,96114.44
2022-12-08T14:20:27.998Z,96112.34
2022-12-08T14:22:58.975Z,96116.91
2022-12-08T14:25:29.949Z,96112.41
2022-12-08T14:28:05.416Z,96116.91
2022-12-08T14:30:36.297Z,96115.31
2022-12-08T14:33:06.409Z,96114.03
2022-12-08T14:35:37.758Z,96122.63
2022-12-08T14:38:14.297Z,96124.78
2022-12-08T14:40:45.537Z,96119.34
2022-12-08T14:43:21.424Z,96115.91
2022-12-08T14:45:53.547Z,96112.66
2022-12-08T14:48:25.417Z,96108.66
2022-12-08T14:51:02.957Z,96109.75
2022-12-08T14:53:39.876Z,96109.56
2022-12-08T14:56:21.439Z,96107.09
2022-12-08T14:59:04.646Z,96117.13
2022-12-08T15:01:34.646Z,96111.00
2022-12-08T15:04:10.021Z,96106.97
2022-12-08T15:06:38.692Z,96109.16
2022-12-08T15:09:28.977Z,96110.22
2022-12-08T15:12:03.480Z,96113.47
2022-12-08T15:14:37.135Z,96108.66
2022-12-08T15:17:20.785Z,96107.34
2022-12-08T15:19:58.395Z,96105.53
2022-12-08T15:22:27.781Z,96106.59
2022-12-08T15:24:57.459Z,96107.13
2022-12-08T15:27:27.525Z,96103.63
2022-12-08T15:29:57.194Z,96092.63
2022-12-08T15:32:25.865Z,96091.84
2022-12-08T15:34:54.196Z,96105.00
2022-12-08T15:37:24.841Z,96100.75
2022-12-08T15:39:54.038Z,96099.41
2022-12-08T15:42:22.373Z,96100.47
2022-12-08T15:44:51.071Z,96098.06
2022-12-08T15:47:22.846Z,96095.91
2022-12-08T15:49:53.161Z,96095.13
2022-12-08T15:52:25.942Z,96097.53
2022-12-08T15:54:54.924Z,96100.19
2022-12-08T15:57:53.557Z,96092.41
2022-12-08T16:04:13.758Z,96100.91
2022-12-08T16:09:20.694Z,96101.47
2022-12-08T16:12:09.409Z,96093.41
2022-12-08T16:17:29.212Z,96104.47
2022-12-08T16:19:59.724Z,96091.31
2022-12-08T16:25:20.955Z,96099.06
2022-12-08T16:28:36.932Z,96095.53
2022-12-08T16:30:40.357Z,96090.44
2022-12-08T16:33:09.417Z,96086.13
2022-12-08T16:35:39.273Z,96084.25
2022-12-08T16:38:08.171Z,96093.13
2022-12-08T16:40:57.654Z,96084.00
2022-12-08T16:43:25.299Z,96095.22
2022-12-08T16:45:53.813Z,96103.56
2022-12-08T16:48:22.739Z,96096.59
2022-12-08T16:50:53.915Z,96083.66
2022-12-08T16:53:23.108Z,96088.22
2022-12-08T16:55:52.174Z,96103.53
2022-12-08T16:58:20.914Z,96098.97
2022-12-08T17:00:49.352Z,96097.38
2022-12-08T17:03:18.553Z,96103.78
2022-12-08T17:05:47.164Z,96105.13
2022-12-08T17:08:16.997Z,96082.84
2022-12-08T17:11:05.676Z,96087.69
2022-12-08T17:13:34.313Z,96087.09
2022-12-08T17:16:03.489Z,96095.72
2022-12-08T17:18:31.841Z,96101.66
2022-12-08T17:21:00.117Z,96094.13
2022-12-08T17:23:29.846Z,96089.31
2022-12-08T17:26:02.248Z,96096.81
2022-12-08T17:28:58.277Z,96097.44
2022-12-08T17:31:22.231Z,96084.22
2022-12-08T17:33:52.321Z,96091.69
2022-12-08T17:36:21.981Z,96101.41
2022-12-08T17:38:51.677Z,96096.50
2022-12-08T17:41:19.992Z,96087.09
2022-12-08T17:43:48.674Z,96092.47
2022-12-08T17:46:19.097Z,96092.97
2022-12-08T17:48:48.264Z,96083.34
2022-12-08T17:51:17.166Z,96076.94
2022-12-08T17:53:46.616Z,96084.44
2022-12-08T17:56:20.041Z,96080.19
2022-12-08T17:58:54.218Z,96076.44
2022-12-08T18:01:24.319Z,96078.00
2022-12-08T18:03:53.233Z,96075.88
2022-12-08T18:06:25.623Z,96074.31
2022-12-08T18:08:55.629Z,96080.50
2022-12-08T18:11:25.540Z,96084.28
2022-12-08T18:13:55.529Z,96087.50
2022-12-08T18:16:27.995Z,96087.81
2022-12-08T18:18:56.357Z,96090.50
2022-12-08T18:21:24.892Z,96086.78
2022-12-08T18:23:53.359Z,96077.13
2022-12-08T18:26:22.039Z,96083.88
2022-12-08T18:28:51.720Z,96077.72
2022-12-08T18:31:23.334Z,96074.50
2022-12-08T18:33:53.626Z,96077.44
2022-12-08T18:36:26.012Z,96090.59
2022-12-08T18:38:55.024Z,96089.53
2022-12-08T18:41:26.791Z,96086.31
2022-12-08T18:43:58.099Z,96087.66
2022-12-08T18:46:27.137Z,96083.94
2022-12-08T18:48:55.575Z,96081.78
2022-12-08T18:51:25.520Z,96080.97
2022-12-08T18:53:54.545Z,96078.78
2022-12-08T18:56:26.759Z,96087.63
2022-12-08T18:59:02.929Z,96085.53
2022-12-08T19:01:31.942Z,96077.19
2022-12-08T19:06:48.943Z,96079.56
2022-12-08T19:09:17.885Z,96078.78
2022-12-08T19:11:46.252Z,96073.09
2022-12-08T19:14:16.134Z,96075.28
2022-12-08T19:16:44.541Z,96069.66
2022-12-08T19:19:12.984Z,96074.47
2022-12-08T19:21:46.286Z,96067.50
2022-12-08T19:24:15.474Z,96062.91
2022-12-08T19:26:44.634Z,96065.28
2022-12-08T19:29:15.009Z,96069.28
2022-12-08T19:31:44.020Z,96070.16
2022-12-08T19:34:15.147Z,96072.88
2022-12-08T19:36:44.163Z,96065.31
2022-12-08T19:39:36.330Z,96062.09
2022-12-08T19:42:23.213Z,96053.00
2022-12-08T19:44:55.877Z,96049.75
2022-12-08T19:47:26.434Z,96055.69
2022-12-08T19:50:16.264Z,96053.25
2022-12-08T19:52:45.781Z,96053.78
2022-12-08T19:55:14.442Z,96056.75
2022-12-08T19:57:43.250Z,96054.88
2022-12-08T20:00:14.386Z,96049.53
2022-12-08T20:02:43.199Z,96047.34
2022-12-08T20:05:13.327Z,96039.03
2022-12-08T20:07:43.010Z,96048.66
2022-12-08T20:10:18.774Z,96051.31
2022-12-08T20:12:47.495Z,96044.09
2022-12-08T20:15:17.717Z,96058.88
2022-12-08T20:17:46.405Z,96052.44
2022-12-08T20:20:15.368Z,96050.59
2022-12-08T20:22:45.323Z,96046.00
2022-12-08T20:25:14.426Z,96040.16
2022-12-08T20:27:43.667Z,96045.00
2022-12-08T20:30:16.962Z,96048.78
2022-12-08T20:32:47.227Z,96049.31
2022-12-08T20:35:16.995Z,96049.59
2022-12-08T20:37:45.721Z,96045.53
2022-12-08T20:40:14.481Z,96046.63
2022-12-08T20:42:43.211Z,96042.34
2022-12-08T20:45:11.923Z,96047.97
2022-12-08T20:47:40.772Z,96045.84
2022-12-08T20:50:12.009Z,96045.63
2022-12-08T20:52:41.202Z,96041.88
2022-12-08T20:55:11.158Z,96047.50
2022-12-08T20:57:39.900Z,96049.13
2022-12-08T21:00:10.566Z,96045.09
2022-12-08T21:02:45.061Z,96058.50
2022-12-08T21:05:17.781Z,96054.50
2022-12-08T21:07:46.848Z,96058.25
2022-12-08T21:10:15.553Z,96054.47
2022-12-08T21:12:44.340Z,96050.72
2022-12-08T21:15:13.673Z,96052.59
2022-12-08T21:17:42.623Z,96045.09
2022-12-08T21:20:12.090Z,96045.66
2022-12-08T21:22:42.301Z,96044.28
2022-12-08T21:25:11.362Z,96040.56
2022-12-08T21:27:40.724Z,96051.00
2022-12-08T21:30:12.303Z,96044.03
2022-12-08T21:32:41.349Z,96035.19
2022-12-08T21:35:11.115Z,96028.50
2022-12-08T21:37:41.355Z,96029.56
2022-12-08T21:40:11.355Z,96035.75
2022-12-08T21:42:46.229Z,96029.09
2022-12-08T21:45:18.523Z,96027.75
2022-12-08T21:47:48.220Z,96034.19
2022-12-08T21:50:18.118Z,96035.81
2022-12-08T21:52:50.378Z,96036.38
2022-12-08T21:55:20.383Z,96041.22
2022-12-08T21:57:49.250Z,96033.16
2022-12-08T22:00:19.704Z,96039.84
2022-12-08T22:02:49.083Z,96036.91
2022-12-08T22:05:18.341Z,96040.94
2022-12-08T22:07:48.364Z,96039.31
2022-12-08T22:10:17.144Z,96033.16
2022-12-08T22:12:45.685Z,96045.47
2022-12-08T22:15:14.848Z,96045.72
2022-12-08T22:17:44.761Z,96035.75
2022-12-08T22:20:16.067Z,96036.59
2022-12-08T22:22:46.022Z,96032.84
2022-12-08T22:25:16.159Z,96028.53
2022-12-08T22:27:44.806Z,96037.41
2022-12-08T22:30:13.959Z,96039.28
2022-12-08T22:32:43.093Z,96037.66
2022-12-08T22:35:12.140Z,96039.28
2022-12-08T22:37:41.054Z,96033.34
2022-12-08T22:40:12.470Z,96038.44
2022-12-08T22:42:43.062Z,96032.78
2022-12-08T22:45:12.851Z,96025.81
2022-12-08T22:47:41.819Z,96030.94
2022-12-08T22:50:11.524Z,96030.13
2022-12-08T22:52:40.480Z,96028.25
2022-12-08T22:55:10.491Z,96025.50
2022-12-08T22:57:39.407Z,96024.66
2022-12-08T23:00:13.044Z,96016.06
2022-12-08T23:02:42.028Z,96009.94
2022-12-08T23:05:12.000Z,96022.00
2022-12-08T23:07:41.425Z,96016.66
2022-12-08T23:10:11.805Z,96012.38
2022-12-08T23:12:40.512Z,96009.72
2022-12-08T23:15:11.525Z,96014.81
2022-12-08T23:17:40.001Z,96012.91
2022-12-08T23:20:10.606Z,96014.81
2022-12-08T23:22:39.825Z,96002.72
2022-12-08T23:25:09.888Z,96002.47
2022-12-08T23:27:39.179Z,95993.63
2022-12-08T23:30:11.371Z,95994.72
2022-12-08T23:32:40.087Z,95990.44
2022-12-08T23:35:09.642Z,95990.44
2022-12-08T23:37:38.439Z,95987.22
2022-12-08T23:40:09.193Z,95990.44
2022-12-08T23:42:38.112Z,95986.13
2022-12-08T23:45:10.183Z,95990.41
2022-12-08T23:47:38.982Z,95980.47
2022-12-08T23:50:09.946Z,95986.09
2022-12-08T23:52:39.959Z,95973.25
2022-12-08T23:55:11.161Z,95977.00
2022-12-08T23:57:40.238Z,95968.97
